createdAt,value
2023-04-20T00:00:42.135Z,71.00
2023-04-20T00:03:10.564Z,71.00
2023-04-20T00:05:50.542Z,71.10
2023-04-20T00:08:21.921Z,71.00
2023-04-20T00:10:50.510Z,71.20
2023-04-20T00:13:49.244Z,71.10
2023-04-20T00:16:18.736Z,71.20
2023-04-20T00:18:48.829Z,71.10
2023-04-20T00:21:26.563Z,71.10
2023-04-20T00:23:57.237Z,71.20
2023-04-20T00:26:34.299Z,71.10
2023-04-20T00:29:13.229Z,71.20
2023-04-20T00:32:08.015Z,71.50
2023-04-20T00:34:45.889Z,71.90
2023-04-20T00:37:36.991Z,72.00
2023-04-20T00:40:17.899Z,72.30
2023-04-20T00:42:46.274Z,72.30
2023-04-20T00:45:17.774Z,72.60
2023-04-20T00:47:46.618Z,72.70
2023-04-20T00:50:28.458Z,73.70
2023-04-20T00:53:05.315Z,73.00
2023-04-20T00:55:41.615Z,73.30
2023-04-20T00:58:23.905Z,73.30
2023-04-20T01:00:56.035Z,73.60
2023-04-20T01:03:25.340Z,73.70
2023-04-20T01:05:59.203Z,73.80
2023-04-20T01:08:31.527Z,74.00
2023-04-20T01:11:09.373Z,74.10
2023-04-20T01:13:40.789Z,74.20
2023-04-20T01:16:20.363Z,74.20
2023-04-20T01:18:51.810Z,74.20
2023-04-20T01:21:25.228Z,74.40
2023-04-20T01:23:58.740Z,74.60
2023-04-20T01:26:29.452Z,74.70
2023-04-20T01:28:58.093Z,74.70
2023-04-20T01:31:27.426Z,74.80
2023-04-20T01:34:00.452Z,75.00
2023-04-20T01:36:36.699Z,75.20
2023-04-20T01:39:10.630Z,75.20
2023-04-20T01:41:42.194Z,75.40
2023-04-20T01:44:15.186Z,75.50
2023-04-20T01:46:52.769Z,75.60
2023-04-20T01:49:24.262Z,75.60
2023-04-20T01:51:56.397Z,75.60
2023-04-20T01:54:28.291Z,75.60
2023-04-20T01:56:57.484Z,75.60
2023-04-20T01:59:29.335Z,75.50
2023-04-20T02:01:59.380Z,76.30
2023-04-20T02:04:31.630Z,75.70
2023-04-20T02:07:11.189Z,75.70
2023-04-20T02:09:47.904Z,75.60
2023-04-20T02:12:29.297Z,75.60
2023-04-20T02:15:01.911Z,75.60
2023-04-20T02:17:41.744Z,76.40
2023-04-20T02:20:14.508Z,75.70
2023-04-20T02:22:47.429Z,75.70
2023-04-20T02:25:29.584Z,75.70
2023-04-20T02:28:03.696Z,75.80
2023-04-20T02:30:35.152Z,76.00
2023-04-20T02:33:10.378Z,76.10
2023-04-20T02:35:40.809Z,76.10
2023-04-20T02:38:12.300Z,76.20
2023-04-20T02:40:46.817Z,76.30
2023-04-20T02:43:16.392Z,76.50
2023-04-20T02:45:45.628Z,76.60
2023-04-20T02:48:16.884Z,76.60
2023-04-20T02:50:49.685Z,76.50
2023-04-20T02:53:29.413Z,76.60
2023-04-20T02:56:23.551Z,76.80
2023-04-20T02:59:08.151Z,76.80
2023-04-20T03:02:23.728Z,76.80
2023-04-20T03:04:59.239Z,76.80
2023-04-20T03:07:42.330Z,76.80
2023-04-20T03:10:13.754Z,76.80
2023-04-20T03:12:55.319Z,76.90
2023-04-20T03:15:38.311Z,77.00
2023-04-20T03:18:30.963Z,77.30
2023-04-20T03:21:04.315Z,77.40
2023-04-20T03:23:36.954Z,77.50
2023-04-20T03:26:10.069Z,77.60
2023-04-20T03:29:01.545Z,77.80
2023-04-20T03:31:30.920Z,77.90
2023-04-20T03:34:04.644Z,77.90
2023-04-20T03:36:33.902Z,78.00
2023-04-20T03:39:13.930Z,78.00
2023-04-20T03:41:51.496Z,78.10
2023-04-20T03:44:29.194Z,78.10
2023-04-20T03:47:10.225Z,78.10
2023-04-20T03:49:44.190Z,78.00
2023-04-20T03:52:17.113Z,77.90
2023-04-20T03:54:48.021Z,78.00
2023-04-20T03:57:20.907Z,78.10
2023-04-20T03:59:55.352Z,78.10
2023-04-20T04:02:31.481Z,78.10
2023-04-20T04:05:06.499Z,78.10
2023-04-20T04:07:37.351Z,78.10
2023-04-20T04:10:08.552Z,78.20
2023-04-20T04:12:38.623Z,78.30
2023-04-20T04:15:13.679Z,78.40
2023-04-20T04:18:09.927Z,78.30
2023-04-20T04:20:55.858Z,78.40
2023-04-20T04:23:25.930Z,78.50
2023-04-20T04:26:11.369Z,78.50
2023-04-20T04:28:46.419Z,78.50
2023-04-20T04:31:22.792Z,78.40
2023-04-20T04:33:57.406Z,78.60
2023-04-20T04:36:34.153Z,78.70
2023-04-20T04:39:08.234Z,78.70
2023-04-20T04:41:38.829Z,78.80
2023-04-20T04:44:22.644Z,78.90
2023-04-20T04:46:55.010Z,79.00
2023-04-20T04:49:27.147Z,78.80
2023-04-20T04:52:24.222Z,78.60
2023-04-20T04:54:53.214Z,78.10
2023-04-20T04:57:25.520Z,77.80
2023-04-20T05:00:00.931Z,77.60
2023-04-20T05:02:40.538Z,77.60
2023-04-20T05:05:13.036Z,77.40
2023-04-20T05:07:45.528Z,77.20
2023-04-20T05:10:24.865Z,76.90
2023-04-20T05:12:53.519Z,76.90
2023-04-20T05:15:24.921Z,76.70
2023-04-20T05:17:53.372Z,76.40
2023-04-20T05:20:23.351Z,76.20
2023-04-20T05:22:54.062Z,76.00
2023-04-20T05:25:37.931Z,75.80
2023-04-20T05:28:21.042Z,75.90
2023-04-20T05:30:52.012Z,75.70
2023-04-20T05:33:23.678Z,75.20
2023-04-20T05:36:00.631Z,74.80
2023-04-20T05:38:28.506Z,74.40
2023-04-20T05:40:56.394Z,74.00
2023-04-20T05:43:23.724Z,73.50
2023-04-20T05:45:51.377Z,73.30
2023-04-20T05:48:19.761Z,72.80
2023-04-20T05:50:48.829Z,72.70
2023-04-20T05:53:16.275Z,72.40
2023-04-20T05:55:44.032Z,71.70
2023-04-20T05:58:11.888Z,71.70
2023-04-20T06:00:38.708Z,71.30
2023-04-20T06:03:05.739Z,71.20
2023-04-20T06:05:32.789Z,71.20
2023-04-20T06:08:01.954Z,71.30
2023-04-20T06:10:32.383Z,71.30
2023-04-20T06:12:59.267Z,71.30
2023-04-20T06:15:26.142Z,71.20
2023-04-20T06:17:53.094Z,71.20
2023-04-20T06:20:20.699Z,71.20
2023-04-20T06:22:47.979Z,71.10
2023-04-20T06:25:15.698Z,70.80
2023-04-20T06:27:42.872Z,71.70
2023-04-20T06:30:10.558Z,70.80
2023-04-20T06:32:38.274Z,70.30
2023-04-20T06:35:06.528Z,70.00
2023-04-20T06:37:34.643Z,69.90
2023-04-20T06:40:08.423Z,70.00
2023-04-20T06:42:35.879Z,69.70
2023-04-20T06:45:02.818Z,69.60
2023-04-20T06:47:34.106Z,70.00
2023-04-20T06:50:02.684Z,69.80
2023-04-20T06:52:31.093Z,69.70
2023-04-20T06:54:59.839Z,69.40
2023-04-20T06:57:26.761Z,69.40
2023-04-20T06:59:53.666Z,69.20
2023-04-20T07:02:21.152Z,69.00
2023-04-20T07:04:48.162Z,69.00
2023-04-20T07:07:15.153Z,68.80
2023-04-20T07:09:42.358Z,68.70
2023-04-20T07:12:09.639Z,68.70
2023-04-20T07:14:36.864Z,68.60
2023-04-20T07:17:04.473Z,68.40
2023-04-20T07:19:32.670Z,68.40
2023-04-20T07:22:00.308Z,68.60
2023-04-20T07:24:27.692Z,68.60
2023-04-20T07:26:55.626Z,68.60
2023-04-20T07:29:22.439Z,68.60
2023-04-20T07:31:49.304Z,68.40
2023-04-20T07:34:16.703Z,68.40
2023-04-20T07:36:43.701Z,68.50
2023-04-20T07:39:10.528Z,68.30
2023-04-20T07:41:37.332Z,68.20
2023-04-20T07:44:04.208Z,68.10
2023-04-20T07:46:31.163Z,68.00
2023-04-20T07:48:58.013Z,68.00
2023-04-20T07:51:24.830Z,67.80
2023-04-20T07:53:51.735Z,67.50
2023-04-20T07:56:18.696Z,67.00
2023-04-20T07:58:45.592Z,66.70
2023-04-20T08:01:12.541Z,66.60
2023-04-20T08:03:39.463Z,66.50
2023-04-20T08:06:06.698Z,66.60
2023-04-20T08:08:33.696Z,66.60
2023-04-20T08:11:00.613Z,66.50
2023-04-20T08:13:30.847Z,66.20
2023-04-20T08:15:57.796Z,66.00
2023-04-20T08:18:24.779Z,65.60
2023-04-20T08:20:51.626Z,65.30
2023-04-20T08:23:19.539Z,65.20
2023-04-20T08:25:46.606Z,65.10
2023-04-20T08:28:24.220Z,65.00
2023-04-20T08:30:56.837Z,65.10
2023-04-20T08:33:24.047Z,65.20
2023-04-20T08:35:51.851Z,65.40
2023-04-20T08:38:23.768Z,65.40
2023-04-20T08:40:57.626Z,65.30
2023-04-20T08:43:24.474Z,65.90
2023-04-20T08:45:52.442Z,65.20
2023-04-20T08:48:21.468Z,65.90
2023-04-20T08:50:49.642Z,65.10
2023-04-20T08:53:16.595Z,65.10
2023-04-20T08:55:43.528Z,65.20
2023-04-20T08:58:10.588Z,65.50
2023-04-20T09:00:47.183Z,65.60
2023-04-20T09:03:14.400Z,65.50
2023-04-20T09:05:41.804Z,65.40
2023-04-20T09:08:08.799Z,65.70
2023-04-20T09:10:46.955Z,65.60
2023-04-20T09:13:23.882Z,65.80
2023-04-20T09:15:50.991Z,65.70
2023-04-20T09:18:18.787Z,65.40
2023-04-20T09:20:46.162Z,64.90
2023-04-20T09:23:14.455Z,64.60
2023-04-20T09:25:43.239Z,64.30
2023-04-20T09:28:10.315Z,64.40
2023-04-20T09:30:38.314Z,64.60
2023-04-20T09:33:07.213Z,64.50
2023-04-20T09:35:36.171Z,64.20
2023-04-20T09:38:03.035Z,63.40
2023-04-20T09:40:30.584Z,63.40
2023-04-20T09:43:01.480Z,62.20
2023-04-20T09:45:29.221Z,61.80
2023-04-20T09:47:57.421Z,61.50
2023-04-20T09:50:31.921Z,61.20
2023-04-20T09:53:02.620Z,61.10
2023-04-20T09:55:34.361Z,60.80
2023-04-20T09:58:05.345Z,60.30
2023-04-20T10:00:32.430Z,59.60
2023-04-20T10:02:59.764Z,58.40
2023-04-20T10:05:36.876Z,57.30
2023-04-20T10:08:04.327Z,56.70
2023-04-20T10:10:31.416Z,57.10
2023-04-20T10:13:02.262Z,57.30
2023-04-20T10:15:42.261Z,57.30
2023-04-20T10:22:33.730Z,56.90
2023-04-20T10:25:02.469Z,56.70
2023-04-20T10:27:32.292Z,56.90
2023-04-20T10:30:12.546Z,57.50
2023-04-20T10:32:39.479Z,58.00
2023-04-20T10:35:13.989Z,58.30
2023-04-20T10:37:49.198Z,58.50
2023-04-20T10:40:16.280Z,58.60
2023-04-20T10:42:46.634Z,58.90
2023-04-20T10:45:13.722Z,59.10
2023-04-20T10:47:41.114Z,58.70
2023-04-20T10:50:15.643Z,58.70
2023-04-20T10:52:44.014Z,58.70
2023-04-20T10:55:25.403Z,59.10
2023-04-20T10:57:53.297Z,55.20
2023-04-20T11:00:26.685Z,51.80
2023-04-20T11:02:56.859Z,48.70
2023-04-20T11:05:26.473Z,46.90
2023-04-20T11:07:56.228Z,47.10
2023-04-20T11:10:25.358Z,48.00
2023-04-20T11:12:52.334Z,48.70
2023-04-20T11:15:19.299Z,49.70
2023-04-20T11:17:47.327Z,50.70
2023-04-20T11:20:17.029Z,51.40
2023-04-20T11:22:56.691Z,52.40
2023-04-20T11:25:24.038Z,52.70
2023-04-20T11:27:50.999Z,53.60
2023-04-20T11:30:18.031Z,54.40
2023-04-20T11:32:54.880Z,54.90
2023-04-20T11:35:22.153Z,55.20
2023-04-20T11:37:53.786Z,55.60
2023-04-20T11:40:21.275Z,55.90
2023-04-20T11:42:48.182Z,56.30
2023-04-20T11:45:15.867Z,56.60
2023-04-20T11:47:42.862Z,56.80
2023-04-20T11:50:11.673Z,57.80
2023-04-20T11:52:39.746Z,57.60
2023-04-20T11:55:07.505Z,57.90
2023-04-20T11:57:34.763Z,58.70
2023-04-20T12:00:01.771Z,58.20
2023-04-20T12:02:28.820Z,58.40
2023-04-20T12:04:55.930Z,58.80
2023-04-20T12:07:23.363Z,59.20
2023-04-20T12:09:50.321Z,59.40
2023-04-20T12:12:17.286Z,59.80
2023-04-20T12:14:44.293Z,60.00
2023-04-20T12:17:11.259Z,60.10
2023-04-20T12:19:38.212Z,60.20
2023-04-20T12:22:05.196Z,60.00
2023-04-20T12:24:32.128Z,60.00
2023-04-20T12:26:59.504Z,59.80
2023-04-20T12:29:26.535Z,59.60
2023-04-20T12:31:53.600Z,59.40
2023-04-20T12:34:20.882Z,59.30
2023-04-20T12:36:48.113Z,58.90
2023-04-20T12:39:15.429Z,58.30
2023-04-20T12:41:42.816Z,58.50
2023-04-20T12:44:11.537Z,57.60
2023-04-20T12:46:38.806Z,57.10
2023-04-20T12:49:06.257Z,56.10
2023-04-20T12:51:33.419Z,55.10
2023-04-20T12:54:00.878Z,54.50
2023-04-20T12:56:27.918Z,54.10
2023-04-20T12:58:54.795Z,53.70
2023-04-20T13:01:23.023Z,53.30
2023-04-20T13:03:52.090Z,52.30
2023-04-20T13:06:19.206Z,50.40
2023-04-20T13:08:46.550Z,48.30
2023-04-20T13:11:15.505Z,47.30
2023-04-20T13:13:42.774Z,45.80
2023-04-20T13:16:09.976Z,45.00
2023-04-20T13:18:36.916Z,45.40
2023-04-20T13:21:03.986Z,46.00
2023-04-20T13:23:31.025Z,43.90
2023-04-20T13:26:01.473Z,41.90
2023-04-20T13:28:28.491Z,41.40
2023-04-20T13:30:57.487Z,41.70
2023-04-20T13:33:27.796Z,41.80
2023-04-20T13:35:54.877Z,42.90
2023-04-20T13:38:21.844Z,42.80
2023-04-20T13:40:48.740Z,42.50
2023-04-20T13:43:15.725Z,42.60
2023-04-20T13:45:42.734Z,42.90
2023-04-20T13:48:09.902Z,43.20
2023-04-20T13:50:36.887Z,42.90
2023-04-20T13:53:05.043Z,43.10
2023-04-20T13:55:32.030Z,43.30
2023-04-20T13:57:59.001Z,44.10
2023-04-20T14:00:26.237Z,43.30
2023-04-20T14:02:53.464Z,41.70
2023-04-20T14:05:20.716Z,39.70
2023-04-20T14:07:47.626Z,37.00
2023-04-20T14:10:14.555Z,34.60
2023-04-20T14:12:41.590Z,32.20
2023-04-20T14:15:14.110Z,31.40
2023-04-20T14:17:41.193Z,30.90
2023-04-20T14:20:09.354Z,30.50
2023-04-20T14:22:37.462Z,30.60
2023-04-20T14:25:05.119Z,30.70
2023-04-20T14:27:32.557Z,32.60
2023-04-20T14:29:59.432Z,34.10
2023-04-20T14:32:26.403Z,34.90
2023-04-20T14:39:13.073Z,37.10
2023-04-20T14:41:40.019Z,38.60
2023-04-20T14:44:06.981Z,39.30
2023-04-20T14:46:33.979Z,39.90
2023-04-20T14:49:01.013Z,40.40
2023-04-20T14:51:28.515Z,41.20
2023-04-20T14:53:55.405Z,41.80
2023-04-20T14:56:22.520Z,42.10
2023-04-20T14:58:49.483Z,42.60
2023-04-20T15:01:17.204Z,43.10
2023-04-20T15:03:44.463Z,43.00
2023-04-20T15:06:11.718Z,43.10
2023-04-20T15:08:39.026Z,43.30
2023-04-20T15:11:06.049Z,43.40
2023-04-20T15:13:33.143Z,43.60
2023-04-20T15:16:00.257Z,43.90
2023-04-20T15:18:27.196Z,44.20
2023-04-20T15:20:54.316Z,44.30
2023-04-20T15:23:21.276Z,44.20
2023-04-20T15:25:48.502Z,44.30
2023-04-20T15:28:15.498Z,44.10
2023-04-20T15:30:42.666Z,44.20
2023-04-20T15:33:10.258Z,44.40
2023-04-20T15:35:37.251Z,44.60
2023-04-20T15:38:04.208Z,45.00
2023-04-20T15:40:31.270Z,45.20
2023-04-20T15:42:58.182Z,45.50
2023-04-20T15:45:25.245Z,45.30
2023-04-20T15:47:52.341Z,45.20
2023-04-20T15:50:19.332Z,45.30
2023-04-20T15:52:49.691Z,45.20
2023-04-20T15:55:17.558Z,44.30
2023-04-20T15:57:45.016Z,44.50
2023-04-20T16:00:13.537Z,44.70
2023-04-20T16:02:41.049Z,45.10
2023-04-20T16:05:09.116Z,44.80
2023-04-20T16:07:36.089Z,44.70
2023-04-20T16:10:03.267Z,44.20
2023-04-20T16:12:30.239Z,44.40
2023-04-20T16:14:57.421Z,44.90
2023-04-20T16:17:24.619Z,44.90
2023-04-20T16:19:51.660Z,44.70
2023-04-20T16:22:19.151Z,44.70
2023-04-20T16:24:46.213Z,44.80
2023-04-20T16:27:13.373Z,45.10
2023-04-20T16:29:40.626Z,45.10
2023-04-20T16:36:01.945Z,45.20
2023-04-20T17:11:19.837Z,48.40
2023-04-20T17:13:47.223Z,48.40
2023-04-20T17:21:31.689Z,49.30
2023-04-20T17:24:06.428Z,49.40
2023-04-20T17:27:02.112Z,49.50
2023-04-20T17:29:58.324Z,49.70
2023-04-20T17:32:48.118Z,50.20
2023-04-20T17:40:22.296Z,50.60
2023-04-20T17:47:07.358Z,50.80
2023-04-20T17:50:27.980Z,51.00
2023-04-20T17:52:56.645Z,51.40
2023-04-20T17:55:24.392Z,51.60
2023-04-20T17:57:51.580Z,51.80
2023-04-20T18:00:20.585Z,51.70
2023-04-20T18:02:47.624Z,51.80
2023-04-20T18:05:15.917Z,52.00
2023-04-20T18:07:42.970Z,51.90
2023-04-20T18:10:11.348Z,52.20
2023-04-20T18:12:38.292Z,52.70
2023-04-20T18:15:08.076Z,53.40
2023-04-20T18:17:35.431Z,54.20
2023-04-20T18:20:02.935Z,54.70
2023-04-20T18:22:30.065Z,55.10
2023-04-20T18:24:57.061Z,55.60
2023-04-20T18:27:24.141Z,55.80
2023-04-20T18:29:55.041Z,56.20
2023-04-20T18:32:33.369Z,56.30
2023-04-20T18:35:11.370Z,56.50
2023-04-20T18:37:42.506Z,56.60
2023-04-20T18:40:19.684Z,56.80
2023-04-20T18:43:53.141Z,57.10
2023-04-20T18:51:18.754Z,58.20
2023-04-20T19:02:58.587Z,58.80
2023-04-20T19:05:49.530Z,58.70
2023-04-20T19:08:53.795Z,59.30
2023-04-20T19:11:46.111Z,59.30
2023-04-20T19:14:20.458Z,59.50
2023-04-20T19:17:02.565Z,59.80
2023-04-20T19:20:14.946Z,60.00
2023-04-20T19:23:14.631Z,60.30
2023-04-20T19:25:47.259Z,60.60
2023-04-20T19:28:31.923Z,60.60
2023-04-20T19:34:26.138Z,60.80
2023-04-20T19:43:03.469Z,60.50
2023-04-20T19:45:39.384Z,60.50
2023-04-20T19:48:09.589Z,60.60
2023-04-20T19:50:49.051Z,60.70
2023-04-20T19:53:19.985Z,60.50
2023-04-20T19:56:00.215Z,60.60
2023-04-20T19:58:30.086Z,60.80
2023-04-20T20:01:06.291Z,60.70
2023-04-20T20:03:34.619Z,61.00
2023-04-20T20:06:11.909Z,61.10
2023-04-20T20:08:52.882Z,61.30
2023-04-20T20:11:36.791Z,61.40
2023-04-20T20:14:14.975Z,61.60
2023-04-20T20:16:59.490Z,62.00
2023-04-20T20:19:48.318Z,62.00
2023-04-20T20:22:54.988Z,61.70
2023-04-20T20:25:45.803Z,61.60
2023-04-20T20:28:26.793Z,61.70
2023-04-20T20:30:58.799Z,62.00
2023-04-20T20:33:27.507Z,61.90
2023-04-20T20:35:57.817Z,62.00
2023-04-20T20:38:46.194Z,62.30
2023-04-20T20:41:15.010Z,62.50
2023-04-20T20:43:43.532Z,62.60
2023-04-20T20:46:19.676Z,62.70
2023-04-20T20:53:37.088Z,63.20
2023-04-20T20:56:12.291Z,63.40
2023-04-20T20:58:45.456Z,63.50
2023-04-20T21:01:32.754Z,63.90
2023-04-20T21:04:05.611Z,64.20
2023-04-20T21:06:35.034Z,64.60
2023-04-20T21:09:02.879Z,64.90
2023-04-20T21:11:34.892Z,65.00
2023-04-20T21:14:03.545Z,65.40
2023-04-20T21:16:30.662Z,65.50
2023-04-20T21:18:57.754Z,65.70
2023-04-20T21:21:24.806Z,65.90
2023-04-20T21:23:53.964Z,66.00
2023-04-20T21:26:21.004Z,66.20
2023-04-20T21:28:47.987Z,66.30
2023-04-20T21:31:14.963Z,66.60
2023-04-20T21:33:42.039Z,66.50
2023-04-20T21:36:09.136Z,66.70
2023-04-20T21:39:05.670Z,67.00
2023-04-20T21:41:32.708Z,67.00
2023-04-20T21:44:00.635Z,66.90
2023-04-20T21:46:27.714Z,67.00
2023-04-20T21:48:54.782Z,67.20
2023-04-20T21:51:21.883Z,67.40
2023-04-20T21:53:49.081Z,67.70
2023-04-20T21:56:16.117Z,67.80
2023-04-20T21:58:43.083Z,67.80
2023-04-20T22:01:10.353Z,67.60
2023-04-20T22:03:38.129Z,67.70
2023-04-20T22:06:07.171Z,67.60
2023-04-20T22:08:34.195Z,67.60
2023-04-20T22:11:01.439Z,67.50
2023-04-20T22:13:28.517Z,67.50
2023-04-20T22:15:55.666Z,67.40
2023-04-20T22:18:22.656Z,67.40
2023-04-20T22:20:49.963Z,67.40
2023-04-20T22:23:16.890Z,67.30
2023-04-20T22:25:44.196Z,67.50
2023-04-20T22:28:11.508Z,67.80
2023-04-20T22:30:38.471Z,67.80
2023-04-20T22:33:05.628Z,67.80
2023-04-20T22:35:32.603Z,68.00
2023-04-20T22:37:59.578Z,68.00
2023-04-20T22:40:27.117Z,67.90
2023-04-20T22:42:54.055Z,67.70
2023-04-20T22:45:22.020Z,67.60
2023-04-20T22:47:49.002Z,67.70
2023-04-20T22:50:16.313Z,67.90
2023-04-20T22:52:43.426Z,68.10
2023-04-20T22:55:11.178Z,68.40
2023-04-20T22:57:39.286Z,68.50
2023-04-20T23:00:10.586Z,68.70
2023-04-20T23:02:38.080Z,68.80
2023-04-20T23:05:06.384Z,68.90
2023-04-20T23:07:33.825Z,68.80
2023-04-20T23:10:01.628Z,68.80
2023-04-20T23:12:32.405Z,68.70
2023-04-20T23:15:02.204Z,68.80
2023-04-20T23:17:29.351Z,68.90
2023-04-20T23:19:56.636Z,68.90
2023-04-20T23:22:23.896Z,69.00
2023-04-20T23:24:50.993Z,69.10
2023-04-20T23:27:17.971Z,69.20
2023-04-20T23:29:45.284Z,69.50
2023-04-20T23:32:12.308Z,69.60
2023-04-20T23:34:39.267Z,69.60
2023-04-20T23:37:06.445Z,69.60
2023-04-20T23:39:37.370Z,69.60
2023-04-20T23:42:07.476Z,69.60
2023-04-20T23:44:34.771Z,69.60
2023-04-20T23:47:01.821Z,69.40
2023-04-20T23:49:28.782Z,69.50
2023-04-20T23:51:55.849Z,69.70
2023-04-20T23:54:22.832Z,69.90
2023-04-20T23:56:50.053Z,70.00
2023-04-20T23:59:17.177Z,70.00
